sensor_id;sensor_type;location;lat;lon;timestamp;P1;durP1;ratioP1;P2;durP2;ratioP2
21943;SDS011;11136;48.778;9.126;2023-03-03T00:01:17;38.20;;;17.42;;
21943;SDS011;11136;48.778;9.126;2023-03-03T00:03:43;33.63;;;19.10;;
21943;SDS011;11136;48.778;9.126;2023-03-03T00:06:10;31.50;;;18.33;;
21943;SDS011;11136;48.778;9.126;2023-03-03T00:08:37;31.15;;;16.95;;
21943;SDS011;11136;48.778;9.126;2023-03-03T00:11:04;31.48;;;17.15;;
21943;SDS011;11136;48.778;9.126;2023-03-03T00:13:32;31.90;;;16.30;;
21943;SDS011;11136;48.778;9.126;2023-03-03T00:18:49;30.88;;;17.70;;
21943;SDS011;11136;48.778;9.126;2023-03-03T00:24:10;31.23;;;17.60;;
21943;SDS011;11136;48.778;9.126;2023-03-03T00:27:01;33.78;;;18.10;;
21943;SDS011;11136;48.778;9.126;2023-03-03T00:29:54;35.95;;;18.80;;
21943;SDS011;11136;48.778;9.126;2023-03-03T00:32:30;36.50;;;18.25;;
21943;SDS011;11136;48.778;9.126;2023-03-03T00:37:55;32.42;;;17.95;;
21943;SDS011;11136;48.778;9.126;2023-03-03T00:42:56;36.58;;;19.52;;
21943;SDS011;11136;48.778;9.126;2023-03-03T00:45:37;34.45;;;18.92;;
21943;SDS011;11136;48.778;9.126;2023-03-03T00:48:18;32.85;;;18.02;;
21943;SDS011;11136;48.778;9.126;2023-03-03T00:50:49;32.53;;;17.77;;
21943;SDS011;11136;48.778;9.126;2023-03-03T00:53:16;35.50;;;17.90;;
21943;SDS011;11136;48.778;9.126;2023-03-03T00:55:44;32.50;;;18.05;;
21943;SDS011;11136;48.778;9.126;2023-03-03T00:58:11;30.90;;;17.58;;
21943;SDS011;11136;48.778;9.126;2023-03-03T01:00:37;33.00;;;18.73;;
21943;SDS011;11136;48.778;9.126;2023-03-03T01:03:04;38.28;;;18.23;;
21943;SDS011;11136;48.778;9.126;2023-03-03T01:05:32;34.28;;;18.08;;
21943;SDS011;11136;48.778;9.126;2023-03-03T01:07:58;34.70;;;19.63;;
21943;SDS011;11136;48.778;9.126;2023-03-03T01:10:24;42.42;;;22.27;;
21943;SDS011;11136;48.778;9.126;2023-03-03T01:12:51;40.47;;;21.15;;
21943;SDS011;11136;48.778;9.126;2023-03-03T01:15:18;38.42;;;19.55;;
21943;SDS011;11136;48.778;9.126;2023-03-03T01:17:44;42.55;;;21.60;;
21943;SDS011;11136;48.778;9.126;2023-03-03T01:20:10;35.22;;;18.92;;
21943;SDS011;11136;48.778;9.126;2023-03-03T01:22:38;34.65;;;18.63;;
21943;SDS011;11136;48.778;9.126;2023-03-03T01:25:03;37.88;;;19.50;;
21943;SDS011;11136;48.778;9.126;2023-03-03T01:27:29;35.95;;;20.00;;
21943;SDS011;11136;48.778;9.126;2023-03-03T01:29:56;43.40;;;19.98;;
21943;SDS011;11136;48.778;9.126;2023-03-03T01:32:23;37.92;;;19.83;;
21943;SDS011;11136;48.778;9.126;2023-03-03T01:34:49;40.63;;;19.73;;
21943;SDS011;11136;48.778;9.126;2023-03-03T01:37:15;38.28;;;19.23;;
21943;SDS011;11136;48.778;9.126;2023-03-03T01:39:40;35.50;;;19.08;;
21943;SDS011;11136;48.778;9.126;2023-03-03T01:42:05;38.85;;;19.20;;
21943;SDS011;11136;48.778;9.126;2023-03-03T01:44:32;35.08;;;18.25;;
21943;SDS011;11136;48.778;9.126;2023-03-03T01:47:05;47.72;;;21.75;;
21943;SDS011;11136;48.778;9.126;2023-03-03T01:49:47;35.70;;;18.77;;
21943;SDS011;11136;48.778;9.126;2023-03-03T01:54:55;36.22;;;19.40;;
21943;SDS011;11136;48.778;9.126;2023-03-03T01:57:27;39.95;;;20.60;;
21943;SDS011;11136;48.778;9.126;2023-03-03T01:59:57;35.67;;;18.17;;
21943;SDS011;11136;48.778;9.126;2023-03-03T02:02:24;36.13;;;18.65;;
21943;SDS011;11136;48.778;9.126;2023-03-03T02:04:52;33.28;;;17.85;;
21943;SDS011;11136;48.778;9.126;2023-03-03T02:07:18;39.65;;;19.70;;
21943;SDS011;11136;48.778;9.126;2023-03-03T02:12:28;35.90;;;19.05;;
21943;SDS011;11136;48.778;9.126;2023-03-03T02:14:59;43.38;;;20.52;;
21943;SDS011;11136;48.778;9.126;2023-03-03T02:17:25;32.50;;;18.17;;
21943;SDS011;11136;48.778;9.126;2023-03-03T02:19:53;34.42;;;19.88;;
21943;SDS011;11136;48.778;9.126;2023-03-03T02:22:35;41.60;;;20.17;;
21943;SDS011;11136;48.778;9.126;2023-03-03T02:25:10;38.97;;;20.23;;
21943;SDS011;11136;48.778;9.126;2023-03-03T02:27:42;36.17;;;18.80;;
21943;SDS011;11136;48.778;9.126;2023-03-03T02:30:13;34.15;;;18.80;;
21943;SDS011;11136;48.778;9.126;2023-03-03T02:32:40;40.20;;;20.52;;
21943;SDS011;11136;48.778;9.126;2023-03-03T02:37:56;41.30;;;21.02;;
21943;SDS011;11136;48.778;9.126;2023-03-03T02:40:28;39.92;;;19.00;;
21943;SDS011;11136;48.778;9.126;2023-03-03T02:42:59;34.45;;;18.52;;
21943;SDS011;11136;48.778;9.126;2023-03-03T02:45:28;40.97;;;20.08;;
21943;SDS011;11136;48.778;9.126;2023-03-03T02:47:54;37.05;;;19.50;;
21943;SDS011;11136;48.778;9.126;2023-03-03T02:50:20;41.38;;;20.73;;
21943;SDS011;11136;48.778;9.126;2023-03-03T02:52:46;44.10;;;19.63;;
21943;SDS011;11136;48.778;9.126;2023-03-03T02:55:11;39.28;;;19.75;;
21943;SDS011;11136;48.778;9.126;2023-03-03T02:57:37;38.47;;;18.27;;
21943;SDS011;11136;48.778;9.126;2023-03-03T03:00:03;43.42;;;20.23;;
21943;SDS011;11136;48.778;9.126;2023-03-03T03:02:29;37.13;;;20.08;;
21943;SDS011;11136;48.778;9.126;2023-03-03T03:04:55;46.53;;;22.02;;
21943;SDS011;11136;48.778;9.126;2023-03-03T03:07:20;39.15;;;19.70;;
21943;SDS011;11136;48.778;9.126;2023-03-03T03:09:46;37.90;;;20.58;;
21943;SDS011;11136;48.778;9.126;2023-03-03T03:12:11;42.45;;;21.42;;
21943;SDS011;11136;48.778;9.126;2023-03-03T03:14:37;42.00;;;19.98;;
21943;SDS011;11136;48.778;9.126;2023-03-03T03:17:03;37.67;;;19.55;;
21943;SDS011;11136;48.778;9.126;2023-03-03T03:19:28;44.17;;;21.65;;
21943;SDS011;11136;48.778;9.126;2023-03-03T03:21:54;40.50;;;19.77;;
21943;SDS011;11136;48.778;9.126;2023-03-03T03:24:20;41.00;;;20.08;;
21943;SDS011;11136;48.778;9.126;2023-03-03T03:26:45;38.17;;;19.60;;
21943;SDS011;11136;48.778;9.126;2023-03-03T03:29:11;36.38;;;20.83;;
21943;SDS011;11136;48.778;9.126;2023-03-03T03:31:37;41.47;;;20.17;;
21943;SDS011;11136;48.778;9.126;2023-03-03T03:34:03;40.83;;;20.15;;
21943;SDS011;11136;48.778;9.126;2023-03-03T03:36:29;45.20;;;20.35;;
21943;SDS011;11136;48.778;9.126;2023-03-03T03:38:54;41.95;;;22.35;;
21943;SDS011;11136;48.778;9.126;2023-03-03T03:41:20;41.83;;;19.73;;
21943;SDS011;11136;48.778;9.126;2023-03-03T03:43:45;37.05;;;20.90;;
21943;SDS011;11136;48.778;9.126;2023-03-03T03:46:11;39.72;;;20.63;;
21943;SDS011;11136;48.778;9.126;2023-03-03T03:48:37;40.60;;;21.13;;
21943;SDS011;11136;48.778;9.126;2023-03-03T03:51:02;37.20;;;20.38;;
21943;SDS011;11136;48.778;9.126;2023-03-03T03:53:28;39.53;;;20.77;;
21943;SDS011;11136;48.778;9.126;2023-03-03T03:55:54;39.65;;;19.52;;
21943;SDS011;11136;48.778;9.126;2023-03-03T03:58:20;49.67;;;23.98;;
21943;SDS011;11136;48.778;9.126;2023-03-03T04:00:46;44.35;;;21.80;;
21943;SDS011;11136;48.778;9.126;2023-03-03T04:03:12;42.60;;;22.77;;
21943;SDS011;11136;48.778;9.126;2023-03-03T04:05:38;40.70;;;21.13;;
21943;SDS011;11136;48.778;9.126;2023-03-03T04:08:04;47.80;;;23.65;;
21943;SDS011;11136;48.778;9.126;2023-03-03T04:10:29;46.72;;;23.02;;
21943;SDS011;11136;48.778;9.126;2023-03-03T04:12:56;41.97;;;22.23;;
21943;SDS011;11136;48.778;9.126;2023-03-03T04:15:22;44.45;;;22.55;;
21943;SDS011;11136;48.778;9.126;2023-03-03T04:17:48;43.97;;;23.08;;
21943;SDS011;11136;48.778;9.126;2023-03-03T04:20:13;45.50;;;23.58;;
21943;SDS011;11136;48.778;9.126;2023-03-03T04:22:40;47.05;;;23.33;;
21943;SDS011;11136;48.778;9.126;2023-03-03T04:25:07;51.75;;;23.85;;
21943;SDS011;11136;48.778;9.126;2023-03-03T04:27:33;55.40;;;24.60;;
21943;SDS011;11136;48.778;9.126;2023-03-03T04:30:00;50.35;;;24.90;;
21943;SDS011;11136;48.778;9.126;2023-03-03T04:32:26;49.65;;;24.15;;
21943;SDS011;11136;48.778;9.126;2023-03-03T04:34:52;60.78;;;26.27;;
21943;SDS011;11136;48.778;9.126;2023-03-03T04:37:18;50.50;;;23.38;;
21943;SDS011;11136;48.778;9.126;2023-03-03T04:39:43;45.88;;;24.38;;
21943;SDS011;11136;48.778;9.126;2023-03-03T04:42:09;58.17;;;25.98;;
21943;SDS011;11136;48.778;9.126;2023-03-03T04:44:35;56.63;;;25.63;;
21943;SDS011;11136;48.778;9.126;2023-03-03T04:47:01;49.20;;;24.27;;
21943;SDS011;11136;48.778;9.126;2023-03-03T04:49:27;61.88;;;25.40;;
21943;SDS011;11136;48.778;9.126;2023-03-03T04:51:52;58.22;;;25.95;;
21943;SDS011;11136;48.778;9.126;2023-03-03T04:54:18;54.45;;;25.13;;
21943;SDS011;11136;48.778;9.126;2023-03-03T04:56:43;56.47;;;25.90;;
21943;SDS011;11136;48.778;9.126;2023-03-03T04:59:09;48.83;;;23.90;;
21943;SDS011;11136;48.778;9.126;2023-03-03T05:01:35;52.92;;;25.52;;
21943;SDS011;11136;48.778;9.126;2023-03-03T05:04:00;52.40;;;26.73;;
21943;SDS011;11136;48.778;9.126;2023-03-03T05:06:26;54.88;;;25.65;;
21943;SDS011;11136;48.778;9.126;2023-03-03T05:08:51;53.58;;;25.77;;
21943;SDS011;11136;48.778;9.126;2023-03-03T05:11:17;50.20;;;24.90;;
21943;SDS011;11136;48.778;9.126;2023-03-03T05:13:43;52.67;;;24.85;;
21943;SDS011;11136;48.778;9.126;2023-03-03T05:16:08;55.22;;;25.17;;
21943;SDS011;11136;48.778;9.126;2023-03-03T05:18:34;59.55;;;26.13;;
21943;SDS011;11136;48.778;9.126;2023-03-03T05:20:59;73.80;;;27.13;;
21943;SDS011;11136;48.778;9.126;2023-03-03T05:23:25;57.50;;;26.40;;
21943;SDS011;11136;48.778;9.126;2023-03-03T05:25:51;53.75;;;25.55;;
21943;SDS011;11136;48.778;9.126;2023-03-03T05:28:16;57.95;;;26.75;;
21943;SDS011;11136;48.778;9.126;2023-03-03T05:30:42;75.00;;;27.15;;
21943;SDS011;11136;48.778;9.126;2023-03-03T05:33:09;58.35;;;26.27;;
21943;SDS011;11136;48.778;9.126;2023-03-03T05:35:37;51.95;;;25.88;;
21943;SDS011;11136;48.778;9.126;2023-03-03T05:38:03;54.97;;;24.95;;
21943;SDS011;11136;48.778;9.126;2023-03-03T05:40:28;58.20;;;26.33;;
21943;SDS011;11136;48.778;9.126;2023-03-03T05:42:54;50.80;;;24.30;;
21943;SDS011;11136;48.778;9.126;2023-03-03T05:45:20;51.88;;;25.33;;
21943;SDS011;11136;48.778;9.126;2023-03-03T05:47:48;62.38;;;27.67;;
21943;SDS011;11136;48.778;9.126;2023-03-03T05:50:15;57.03;;;28.30;;
21943;SDS011;11136;48.778;9.126;2023-03-03T05:52:41;72.55;;;28.58;;
21943;SDS011;11136;48.778;9.126;2023-03-03T05:55:07;77.07;;;26.95;;
21943;SDS011;11136;48.778;9.126;2023-03-03T05:57:33;49.35;;;24.50;;
21943;SDS011;11136;48.778;9.126;2023-03-03T06:00:00;54.13;;;25.27;;
21943;SDS011;11136;48.778;9.126;2023-03-03T06:02:27;53.92;;;24.48;;
21943;SDS011;11136;48.778;9.126;2023-03-03T06:04:53;52.38;;;24.73;;
21943;SDS011;11136;48.778;9.126;2023-03-03T06:07:18;54.10;;;24.45;;
21943;SDS011;11136;48.778;9.126;2023-03-03T06:09:44;51.85;;;24.92;;
21943;SDS011;11136;48.778;9.126;2023-03-03T06:12:09;74.38;;;26.25;;
21943;SDS011;11136;48.778;9.126;2023-03-03T06:14:35;61.45;;;23.92;;
21943;SDS011;11136;48.778;9.126;2023-03-03T06:17:01;85.03;;;26.15;;
21943;SDS011;11136;48.778;9.126;2023-03-03T06:19:26;50.20;;;25.13;;
21943;SDS011;11136;48.778;9.126;2023-03-03T06:21:52;63.50;;;24.40;;
21943;SDS011;11136;48.778;9.126;2023-03-03T06:24:17;60.80;;;24.40;;
21943;SDS011;11136;48.778;9.126;2023-03-03T06:26:43;52.75;;;24.85;;
21943;SDS011;11136;48.778;9.126;2023-03-03T06:29:09;85.30;;;27.80;;
21943;SDS011;11136;48.778;9.126;2023-03-03T06:31:34;67.40;;;23.45;;
21943;SDS011;11136;48.778;9.126;2023-03-03T06:34:00;62.25;;;26.80;;
21943;SDS011;11136;48.778;9.126;2023-03-03T06:36:26;53.53;;;24.75;;
21943;SDS011;11136;48.778;9.126;2023-03-03T06:38:52;54.35;;;24.00;;
21943;SDS011;11136;48.778;9.126;2023-03-03T06:41:17;58.22;;;22.98;;
21943;SDS011;11136;48.778;9.126;2023-03-03T06:43:43;50.45;;;24.02;;
21943;SDS011;11136;48.778;9.126;2023-03-03T06:46:09;57.63;;;26.05;;
21943;SDS011;11136;48.778;9.126;2023-03-03T06:48:34;45.53;;;24.13;;
21943;SDS011;11136;48.778;9.126;2023-03-03T06:51:01;54.20;;;24.15;;
21943;SDS011;11136;48.778;9.126;2023-03-03T06:53:38;52.92;;;21.67;;
21943;SDS011;11136;48.778;9.126;2023-03-03T06:56:06;42.35;;;21.42;;
21943;SDS011;11136;48.778;9.126;2023-03-03T06:58:33;40.95;;;21.60;;
21943;SDS011;11136;48.778;9.126;2023-03-03T07:01:00;63.70;;;23.55;;
21943;SDS011;11136;48.778;9.126;2023-03-03T07:03:32;42.80;;;20.13;;
21943;SDS011;11136;48.778;9.126;2023-03-03T07:05:59;43.58;;;20.63;;
21943;SDS011;11136;48.778;9.126;2023-03-03T07:08:27;51.53;;;20.98;;
21943;SDS011;11136;48.778;9.126;2023-03-03T07:10:55;47.17;;;20.52;;
21943;SDS011;11136;48.778;9.126;2023-03-03T07:13:26;45.47;;;20.15;;
21943;SDS011;11136;48.778;9.126;2023-03-03T07:15:58;38.80;;;20.65;;
21943;SDS011;11136;48.778;9.126;2023-03-03T07:18:30;42.78;;;21.35;;
21943;SDS011;11136;48.778;9.126;2023-03-03T07:21:05;55.20;;;20.77;;
21943;SDS011;11136;48.778;9.126;2023-03-03T07:23:46;38.20;;;19.80;;
21943;SDS011;11136;48.778;9.126;2023-03-03T07:26:15;40.35;;;20.63;;
21943;SDS011;11136;48.778;9.126;2023-03-03T07:28:43;36.65;;;20.77;;
21943;SDS011;11136;48.778;9.126;2023-03-03T07:33:56;41.30;;;21.05;;
21943;SDS011;11136;48.778;9.126;2023-03-03T07:36:28;41.88;;;21.00;;
21943;SDS011;11136;48.778;9.126;2023-03-03T07:38:59;40.05;;;20.92;;
21943;SDS011;11136;48.778;9.126;2023-03-03T07:41:29;48.45;;;20.70;;
21943;SDS011;11136;48.778;9.126;2023-03-03T07:49:29;44.78;;;21.25;;
21943;SDS011;11136;48.778;9.126;2023-03-03T07:51:59;44.45;;;20.52;;
21943;SDS011;11136;48.778;9.126;2023-03-03T07:54:29;49.88;;;21.73;;
21943;SDS011;11136;48.778;9.126;2023-03-03T07:59:46;46.67;;;21.92;;
21943;SDS011;11136;48.778;9.126;2023-03-03T08:02:32;37.42;;;19.25;;
21943;SDS011;11136;48.778;9.126;2023-03-03T08:07:50;39.85;;;21.10;;
21943;SDS011;11136;48.778;9.126;2023-03-03T08:13:22;41.28;;;21.15;;
21943;SDS011;11136;48.778;9.126;2023-03-03T08:15:53;42.80;;;21.13;;
21943;SDS011;11136;48.778;9.126;2023-03-03T08:18:28;42.75;;;21.75;;
21943;SDS011;11136;48.778;9.126;2023-03-03T08:21:00;44.30;;;22.00;;
21943;SDS011;11136;48.778;9.126;2023-03-03T08:23:31;43.20;;;19.95;;
21943;SDS011;11136;48.778;9.126;2023-03-03T08:25:57;38.33;;;17.85;;
21943;SDS011;11136;48.778;9.126;2023-03-03T08:28:23;34.53;;;18.48;;
21943;SDS011;11136;48.778;9.126;2023-03-03T08:30:48;34.35;;;18.67;;
21943;SDS011;11136;48.778;9.126;2023-03-03T08:33:14;36.05;;;17.70;;
21943;SDS011;11136;48.778;9.126;2023-03-03T08:35:41;27.35;;;15.48;;
21943;SDS011;11136;48.778;9.126;2023-03-03T08:38:08;33.47;;;16.27;;
21943;SDS011;11136;48.778;9.126;2023-03-03T08:40:34;29.13;;;16.15;;
21943;SDS011;11136;48.778;9.126;2023-03-03T08:43:00;38.53;;;15.68;;
21943;SDS011;11136;48.778;9.126;2023-03-03T08:45:26;25.30;;;15.38;;
21943;SDS011;11136;48.778;9.126;2023-03-03T08:47:52;31.70;;;15.85;;
21943;SDS011;11136;48.778;9.126;2023-03-03T08:50:18;28.00;;;15.95;;
21943;SDS011;11136;48.778;9.126;2023-03-03T08:52:44;30.33;;;15.85;;
21943;SDS011;11136;48.778;9.126;2023-03-03T08:55:10;26.38;;;14.63;;
21943;SDS011;11136;48.778;9.126;2023-03-03T08:57:36;28.67;;;16.27;;
21943;SDS011;11136;48.778;9.126;2023-03-03T09:00:03;30.73;;;15.95;;
21943;SDS011;11136;48.778;9.126;2023-03-03T09:02:30;26.98;;;16.15;;
21943;SDS011;11136;48.778;9.126;2023-03-03T09:04:56;28.35;;;15.43;;
21943;SDS011;11136;48.778;9.126;2023-03-03T09:07:21;30.98;;;16.27;;
21943;SDS011;11136;48.778;9.126;2023-03-03T09:09:47;26.83;;;15.05;;
21943;SDS011;11136;48.778;9.126;2023-03-03T09:12:21;27.77;;;16.27;;
21943;SDS011;11136;48.778;9.126;2023-03-03T09:14:55;28.70;;;16.20;;
21943;SDS011;11136;48.778;9.126;2023-03-03T09:17:25;29.08;;;16.10;;
21943;SDS011;11136;48.778;9.126;2023-03-03T09:19:58;33.70;;;15.70;;
21943;SDS011;11136;48.778;9.126;2023-03-03T09:22:35;27.98;;;16.92;;
21943;SDS011;11136;48.778;9.126;2023-03-03T09:25:01;27.52;;;17.05;;
21943;SDS011;11136;48.778;9.126;2023-03-03T09:27:52;27.75;;;17.13;;
21943;SDS011;11136;48.778;9.126;2023-03-03T09:32:48;26.65;;;16.95;;
21943;SDS011;11136;48.778;9.126;2023-03-03T09:41:15;29.58;;;16.48;;
21943;SDS011;11136;48.778;9.126;2023-03-03T09:53:15;33.75;;;16.92;;
21943;SDS011;11136;48.778;9.126;2023-03-03T09:58:12;30.90;;;16.73;;
21943;SDS011;11136;48.778;9.126;2023-03-03T10:06:10;28.00;;;15.75;;
21943;SDS011;11136;48.778;9.126;2023-03-03T10:14:25;33.72;;;17.95;;
21943;SDS011;11136;48.778;9.126;2023-03-03T10:17:14;33.30;;;17.50;;
21943;SDS011;11136;48.778;9.126;2023-03-03T10:42:49;44.15;;;19.38;;
21943;SDS011;11136;48.778;9.126;2023-03-03T10:53:56;29.58;;;18.02;;
21943;SDS011;11136;48.778;9.126;2023-03-03T10:56:38;33.78;;;18.08;;
21943;SDS011;11136;48.778;9.126;2023-03-03T11:09:42;33.03;;;18.23;;
21943;SDS011;11136;48.778;9.126;2023-03-03T11:21:40;30.52;;;18.45;;
21943;SDS011;11136;48.778;9.126;2023-03-03T11:32:56;35.83;;;18.95;;
21943;SDS011;11136;48.778;9.126;2023-03-03T11:35:46;32.30;;;18.70;;
21943;SDS011;11136;48.778;9.126;2023-03-03T11:38:30;27.92;;;17.65;;
21943;SDS011;11136;48.778;9.126;2023-03-03T11:41:37;33.75;;;18.42;;
21943;SDS011;11136;48.778;9.126;2023-03-03T11:44:14;30.98;;;18.13;;
21943;SDS011;11136;48.778;9.126;2023-03-03T11:47:01;30.45;;;18.95;;
21943;SDS011;11136;48.778;9.126;2023-03-03T11:49:39;39.13;;;18.77;;
21943;SDS011;11136;48.778;9.126;2023-03-03T11:55:51;35.92;;;18.83;;
21943;SDS011;11136;48.778;9.126;2023-03-03T11:58:07;29.30;;;18.00;;
21943;SDS011;11136;48.778;9.126;2023-03-03T12:11:17;29.52;;;17.58;;
21943;SDS011;11136;48.778;9.126;2023-03-03T12:16:29;29.52;;;17.67;;
21943;SDS011;11136;48.778;9.126;2023-03-03T12:19:21;36.63;;;16.90;;
21943;SDS011;11136;48.778;9.126;2023-03-03T12:22:15;28.55;;;17.48;;
21943;SDS011;11136;48.778;9.126;2023-03-03T12:39:10;33.08;;;18.13;;
21943;SDS011;11136;48.778;9.126;2023-03-03T12:42:16;32.85;;;16.75;;
21943;SDS011;11136;48.778;9.126;2023-03-03T12:44:54;33.25;;;17.75;;
21943;SDS011;11136;48.778;9.126;2023-03-03T12:47:45;29.05;;;16.23;;
21943;SDS011;11136;48.778;9.126;2023-03-03T12:50:22;28.75;;;16.77;;
21943;SDS011;11136;48.778;9.126;2023-03-03T12:55:52;31.05;;;16.98;;
21943;SDS011;11136;48.778;9.126;2023-03-03T12:58:28;29.20;;;17.43;;
21943;SDS011;11136;48.778;9.126;2023-03-03T13:09:16;27.85;;;17.05;;
21943;SDS011;11136;48.778;9.126;2023-03-03T13:14:44;30.48;;;17.80;;
21943;SDS011;11136;48.778;9.126;2023-03-03T13:17:31;28.80;;;17.17;;
21943;SDS011;11136;48.778;9.126;2023-03-03T13:20:04;29.60;;;16.95;;
21943;SDS011;11136;48.778;9.126;2023-03-03T13:28:23;29.30;;;17.43;;
21943;SDS011;11136;48.778;9.126;2023-03-03T13:30:51;26.98;;;16.67;;
21943;SDS011;11136;48.778;9.126;2023-03-03T13:33:28;31.70;;;17.80;;
21943;SDS011;11136;48.778;9.126;2023-03-03T13:36:02;29.45;;;18.92;;
21943;SDS011;11136;48.778;9.126;2023-03-03T13:38:34;28.92;;;18.20;;
21943;SDS011;11136;48.778;9.126;2023-03-03T13:43:50;30.50;;;17.98;;
21943;SDS011;11136;48.778;9.126;2023-03-03T13:57:06;34.88;;;19.55;;
21943;SDS011;11136;48.778;9.126;2023-03-03T14:05:15;31.60;;;18.88;;
21943;SDS011;11136;48.778;9.126;2023-03-03T14:07:51;28.73;;;19.88;;
21943;SDS011;11136;48.778;9.126;2023-03-03T14:13:07;25.65;;;18.92;;
21943;SDS011;11136;48.778;9.126;2023-03-03T14:18:28;29.25;;;20.00;;
21943;SDS011;11136;48.778;9.126;2023-03-03T14:21:08;27.25;;;18.02;;
21943;SDS011;11136;48.778;9.126;2023-03-03T14:28:39;29.73;;;18.92;;
21943;SDS011;11136;48.778;9.126;2023-03-03T14:31:15;27.90;;;19.02;;
21943;SDS011;11136;48.778;9.126;2023-03-03T14:36:38;30.88;;;20.17;;
21943;SDS011;11136;48.778;9.126;2023-03-03T14:42:09;29.65;;;19.40;;
21943;SDS011;11136;48.778;9.126;2023-03-03T14:44:54;30.42;;;19.15;;
21943;SDS011;11136;48.778;9.126;2023-03-03T14:47:23;31.13;;;20.67;;
21943;SDS011;11136;48.778;9.126;2023-03-03T14:49:51;31.05;;;20.50;;
21943;SDS011;11136;48.778;9.126;2023-03-03T14:52:28;32.42;;;18.67;;
21943;SDS011;11136;48.778;9.126;2023-03-03T14:54:58;32.78;;;20.23;;
21943;SDS011;11136;48.778;9.126;2023-03-03T15:05:18;33.22;;;19.55;;
21943;SDS011;11136;48.778;9.126;2023-03-03T15:10:35;34.08;;;20.75;;
21943;SDS011;11136;48.778;9.126;2023-03-03T15:13:26;34.92;;;20.88;;
21943;SDS011;11136;48.778;9.126;2023-03-03T15:18:24;32.92;;;20.17;;
21943;SDS011;11136;48.778;9.126;2023-03-03T15:20:51;30.88;;;19.13;;
21943;SDS011;11136;48.778;9.126;2023-03-03T15:32:04;35.65;;;18.13;;
21943;SDS011;11136;48.778;9.126;2023-03-03T15:34:43;36.20;;;21.38;;
21943;SDS011;11136;48.778;9.126;2023-03-03T15:42:30;36.25;;;20.80;;
21943;SDS011;11136;48.778;9.126;2023-03-03T15:55:49;38.78;;;21.30;;
21943;SDS011;11136;48.778;9.126;2023-03-03T15:58:36;34.25;;;20.80;;
21943;SDS011;11136;48.778;9.126;2023-03-03T16:01:23;32.30;;;19.42;;
21943;SDS011;11136;48.778;9.126;2023-03-03T16:04:14;33.20;;;19.67;;
21943;SDS011;11136;48.778;9.126;2023-03-03T16:20:04;40.95;;;19.92;;
21943;SDS011;11136;48.778;9.126;2023-03-03T16:22:45;34.55;;;18.95;;
21943;SDS011;11136;48.778;9.126;2023-03-03T16:28:13;38.20;;;20.85;;
21943;SDS011;11136;48.778;9.126;2023-03-03T16:30:55;34.95;;;19.85;;
21943;SDS011;11136;48.778;9.126;2023-03-03T16:33:44;43.72;;;21.00;;
21943;SDS011;11136;48.778;9.126;2023-03-03T16:47:29;53.42;;;22.40;;
21943;SDS011;11136;48.778;9.126;2023-03-03T16:53:47;37.47;;;19.85;;
21943;SDS011;11136;48.778;9.126;2023-03-03T17:06:45;33.22;;;17.70;;
21943;SDS011;11136;48.778;9.126;2023-03-03T17:09:24;36.50;;;18.95;;
21943;SDS011;11136;48.778;9.126;2023-03-03T17:25:53;37.63;;;19.42;;
21943;SDS011;11136;48.778;9.126;2023-03-03T17:31:34;32.38;;;17.77;;
21943;SDS011;11136;48.778;9.126;2023-03-03T17:36:53;37.33;;;18.80;;
21943;SDS011;11136;48.778;9.126;2023-03-03T17:39:45;47.97;;;17.65;;
21943;SDS011;11136;48.778;9.126;2023-03-03T17:42:27;35.75;;;18.88;;
21943;SDS011;11136;48.778;9.126;2023-03-03T17:45:15;37.92;;;19.23;;
21943;SDS011;11136;48.778;9.126;2023-03-03T17:50:30;37.65;;;19.58;;
21943;SDS011;11136;48.778;9.126;2023-03-03T17:53:10;41.10;;;20.90;;
21943;SDS011;11136;48.778;9.126;2023-03-03T18:24:13;38.03;;;18.48;;
21943;SDS011;11136;48.778;9.126;2023-03-03T18:26:52;40.70;;;20.52;;
21943;SDS011;11136;48.778;9.126;2023-03-03T18:29:20;45.90;;;21.08;;
21943;SDS011;11136;48.778;9.126;2023-03-03T18:37:00;41.53;;;18.42;;
21943;SDS011;11136;48.778;9.126;2023-03-03T18:44:49;37.03;;;19.08;;
21943;SDS011;11136;48.778;9.126;2023-03-03T18:47:16;35.13;;;18.90;;
21943;SDS011;11136;48.778;9.126;2023-03-03T18:49:49;35.80;;;19.48;;
21943;SDS011;11136;48.778;9.126;2023-03-03T18:52:29;35.53;;;18.77;;
21943;SDS011;11136;48.778;9.126;2023-03-03T18:57:28;34.92;;;21.02;;
21943;SDS011;11136;48.778;9.126;2023-03-03T19:00:40;42.80;;;20.13;;
21943;SDS011;11136;48.778;9.126;2023-03-03T19:02:50;34.50;;;18.75;;
21943;SDS011;11136;48.778;9.126;2023-03-03T19:05:35;45.85;;;19.80;;
21943;SDS011;11136;48.778;9.126;2023-03-03T19:08:23;42.17;;;19.45;;
21943;SDS011;11136;48.778;9.126;2023-03-03T19:11:00;35.67;;;19.52;;
21943;SDS011;11136;48.778;9.126;2023-03-03T19:21:23;46.28;;;21.25;;
21943;SDS011;11136;48.778;9.126;2023-03-03T19:23:52;42.85;;;21.52;;
21943;SDS011;11136;48.778;9.126;2023-03-03T19:35:08;38.83;;;21.42;;
21943;SDS011;11136;48.778;9.126;2023-03-03T19:40:24;39.22;;;20.75;;
21943;SDS011;11136;48.778;9.126;2023-03-03T19:52:00;41.58;;;19.38;;
21943;SDS011;11136;48.778;9.126;2023-03-03T19:57:16;43.97;;;23.05;;
21943;SDS011;11136;48.778;9.126;2023-03-03T19:59:52;40.15;;;21.15;;
21943;SDS011;11136;48.778;9.126;2023-03-03T20:13:12;43.47;;;19.45;;
21943;SDS011;11136;48.778;9.126;2023-03-03T20:18:46;37.53;;;19.92;;
21943;SDS011;11136;48.778;9.126;2023-03-03T20:21:37;40.38;;;19.15;;
21943;SDS011;11136;48.778;9.126;2023-03-03T20:24:31;38.47;;;19.65;;
21943;SDS011;11136;48.778;9.126;2023-03-03T20:35:24;39.15;;;19.20;;
21943;SDS011;11136;48.778;9.126;2023-03-03T20:43:58;35.65;;;18.90;;
21943;SDS011;11136;48.778;9.126;2023-03-03T20:46:39;42.97;;;19.92;;
21943;SDS011;11136;48.778;9.126;2023-03-03T20:49:55;39.97;;;18.53;;
21943;SDS011;11136;48.778;9.126;2023-03-03T20:58:14;31.80;;;17.95;;
21943;SDS011;11136;48.778;9.126;2023-03-03T21:03:40;36.45;;;18.58;;
21943;SDS011;11136;48.778;9.126;2023-03-03T21:06:10;33.13;;;17.50;;
21943;SDS011;11136;48.778;9.126;2023-03-03T21:08:47;39.40;;;17.85;;
21943;SDS011;11136;48.778;9.126;2023-03-03T21:13:55;29.83;;;17.33;;
21943;SDS011;11136;48.778;9.126;2023-03-03T21:21:24;24.20;;;15.32;;
21943;SDS011;11136;48.778;9.126;2023-03-03T21:23:51;32.72;;;15.82;;
21943;SDS011;11136;48.778;9.126;2023-03-03T21:27:03;35.42;;;17.33;;
21943;SDS011;11136;48.778;9.126;2023-03-03T21:29:51;30.00;;;16.27;;
21943;SDS011;11136;48.778;9.126;2023-03-03T21:34:34;31.88;;;17.50;;
21943;SDS011;11136;48.778;9.126;2023-03-03T21:37:02;32.17;;;15.98;;
21943;SDS011;11136;48.778;9.126;2023-03-03T21:42:03;29.27;;;16.40;;
21943;SDS011;11136;48.778;9.126;2023-03-03T21:47:02;37.55;;;17.17;;
21943;SDS011;11136;48.778;9.126;2023-03-03T21:49:30;30.65;;;17.73;;
21943;SDS011;11136;48.778;9.126;2023-03-03T21:51:56;35.22;;;17.13;;
21943;SDS011;11136;48.778;9.126;2023-03-03T21:54:22;30.88;;;16.60;;
21943;SDS011;11136;48.778;9.126;2023-03-03T21:56:48;35.83;;;16.40;;
21943;SDS011;11136;48.778;9.126;2023-03-03T21:59:14;32.47;;;17.10;;
21943;SDS011;11136;48.778;9.126;2023-03-03T22:01:41;33.67;;;17.10;;
21943;SDS011;11136;48.778;9.126;2023-03-03T22:04:06;32.05;;;17.20;;